Petersburg, Illinois
Current Conditions -  °F | °C
As of 4:52 PM on Friday 28 Nov 2014 (Local Time) from KSPI Reporting Station
Clear Clear  
Wind Chill: 31°   Ceiling: Unl
Heat Index: 40°   Visibility: 10mi
Dew Point: 32°   Wind: 18mph
Humidity: 73%   Direction: 160°SSE
Pressure: 29.94"   Gusts: NA
Location:  40.01°N, 89.85°W
Report Text: KSPI 282252Z 16016KT 10SM CLR 04/00 A2994 RMK AO2 SLP145 T00440000
Loading
Personal Weather Stations






























Interactive Weather Map New forecast layout! Learn more

10-Day Weather Forecast

Advertisements
Track Severe Weather on mobile